Rocklake, North Dakota
Current Conditions -  °F | °C
As of 4:55 AM on Friday 24 Oct 2014 (Local Time) from K06D Reporting Station
Clear Clear  
Wind Chill: 46°   Ceiling: Unl
Heat Index: 48°   Visibility: 10mi
Dew Point: 36°   Wind: 5mph
Humidity: 62%   Direction: 190°S
Pressure: 29.74"   Gusts: NA
Location:  48.79°N, 99.25°W
Report Text: K06D 240955Z AUTO 19004KT 10SM CLR 09/02 A2974 RMK AO2
Loading
Personal Weather Stations






























Interactive Weather Map New forecast layout! Learn more

10-Day Weather Forecast

Advertisements
Track Severe Weather on mobile